Overview Statistics Trail Chart Weather Telemetry Raw packets
 

This is the latest recevied weather packets stored in our database for station/object TB1YZC-13. If no packets are shown the sender has not sent any weather packets the latest 10 day(s).

<< 5 6 7 8 9 10 11 >>
Time Temp. Humidity Pressure Rain* Wind** Luminosity Snow
1788569578 19.44° C 100% 1019.5 hPa - - - -
1788568975 19.44° C 99% 1019.6 hPa - - - -
1788568372 19.44° C 99% 1019.5 hPa - - - -
1788567769 19.44° C 99% 1019.4 hPa - - - -
1788567166 19.44° C 98% 1019.4 hPa - - - -
1788566563 19.44° C 98% 1019.5 hPa - - - -
1788565959 18.89° C 97% 1019.3 hPa - - - -
1788565356 20° C 94% 1019.3 hPa - - - -
1788564754 20° C 94% 1019.2 hPa - - - -
1788564150 21.11° C 92% 1019.1 hPa - - - -
1788563547 21.11° C 91% 1019.2 hPa - - - -
1788562945 20.56° C 92% 1019.2 hPa - - - -
1788562341 21.67° C 89% 1019.3 hPa - - - -
1788561738 21.67° C 91% 1019.3 hPa - - - -
1788561135 21.67° C 91% 1019.4 hPa - - - -
1788560532 21.11° C 89% 1019.4 hPa - - - -
1788559929 21.67° C 89% 1019.4 hPa - - - -
1788559325 21.11° C 93% 1019.4 hPa - - - -
1788558722 21.11° C 90% 1019.4 hPa - - - -
1788558119 21.67° C 88% 1019.5 hPa - - - -
1788557515 21.67° C 90% 1019.4 hPa - - - -
1788556912 21.11° C 91% 1019.4 hPa - - - -
1788556309 21.67° C 88% 1019.3 hPa - - - -
1788555706 21.67° C 88% 1019.5 hPa - - - -
1788555102 21.67° C 89% 1019.5 hPa - - - -

* Rain since midnight (hover to see other rain measurements)
** Current wind speed in m/s (hover to see current wind gust speed)